Time;durP1;ratioP1;P1;durP2;ratioP2;P2;SDS_P1;SDS_P2;PMS_P1;PMS_P2;Temp;Humidity;BMP_temperature;BMP_pressure;BME280_temperature;BME280_humidity;BME280_pressure;Samples;Min_cycle;Max_cycle;Signal;HPM_P1;HPM_P2
2020/12/03 00:01:41;;;;;;;;;;;5.10;99.90;;;;;;5090945;28;20372;-73
2020/12/03 00:04:07;;;;;;;;;;;5.20;99.90;;;;;;5097320;28;19923;-74
2020/12/03 00:06:35;;;;;;;;;;;5.20;99.90;;;;;;5091015;28;19909;-73
2020/12/03 00:09:07;;;;;;;;;;;5.20;99.90;;;;;;5112938;28;20713;-73
2020/12/03 00:11:35;;;;;;;;;;;5.10;99.90;;;;;;5091089;27;20371;-75
2020/12/03 00:14:00;;;;;;;;;;;5.20;99.90;;;;;;5101368;28;20334;-73
2020/12/03 00:16:27;;;;;;;;;;;5.00;99.90;;;;;;5095044;28;19907;-73
2020/12/03 00:18:54;;;;;;;;;;;5.20;99.90;;;;;;5101460;28;19908;-73
2020/12/03 00:21:29;;;;;;;;;;;5.20;99.90;;;;;;5094799;28;19943;-74
2020/12/03 00:23:55;;;;;;;;;;;5.00;99.90;;;;;;5101417;28;20478;-74
2020/12/03 00:26:20;;;;;;;;;;;5.20;99.90;;;;;;5110246;27;19995;-73
2020/12/03 00:28:46;;;;;;;;;;;5.30;99.90;;;;;;5101570;28;19915;-73
2020/12/03 00:31:11;;;;;;;;;;;5.20;99.90;;;;;;5093589;28;19911;-74
2020/12/03 00:33:37;;;;;;;;;;;5.20;99.90;;;;;;5102252;28;19908;-74
2020/12/03 00:36:02;;;;;;;;;;;5.20;99.90;;;;;;5092505;28;19981;-75
2020/12/03 00:38:28;;;;;;;;;;;5.10;99.90;;;;;;5103419;28;19995;-73
2020/12/03 00:40:54;;;;;;;;;;;5.00;99.90;;;;;;5092209;28;20318;-73
2020/12/03 00:43:19;;;;;;;;;;;5.10;99.90;;;;;;5103286;28;19947;-74
2020/12/03 00:45:46;;;;;;;;;;;5.00;99.90;;;;;;5107432;28;19996;-74
2020/12/03 00:48:13;;;;;;;;;;;5.10;99.90;;;;;;5103227;28;19919;-75
2020/12/03 00:50:38;;;;;;;;;;;5.10;99.90;;;;;;5092066;28;19908;-75
2020/12/03 00:53:04;;;;;;;;;;;5.10;99.90;;;;;;5103066;28;19907;-73
2020/12/03 00:55:29;;;;;;;;;;;5.10;99.90;;;;;;5091858;28;19911;-74
2020/12/03 00:57:55;;;;;;;;;;;5.00;99.90;;;;;;5102873;28;19918;-73
2020/12/03 01:00:21;;;;;;;;;;;5.00;99.90;;;;;;5097183;27;19915;-73
2020/12/03 01:02:47;;;;;;;;;;;5.10;99.90;;;;;;5109319;27;20496;-74
2020/12/03 01:05:13;;;;;;;;;;;5.00;99.90;;;;;;5092933;28;19912;-73
2020/12/03 01:07:39;;;;;;;;;;;5.00;99.90;;;;;;5100237;28;20440;-74
2020/12/03 01:10:06;;;;;;;;;;;4.90;99.90;;;;;;5094145;28;19994;-73
2020/12/03 01:12:32;;;;;;;;;;;5.00;99.90;;;;;;5099154;28;19938;-73
2020/12/03 01:14:57;;;;;;;;;;;4.90;99.90;;;;;;5094958;28;20396;-74
2020/12/03 01:17:23;;;;;;;;;;;5.00;99.90;;;;;;5097804;28;19937;-74
2020/12/03 01:19:48;;;;;;;;;;;4.90;99.90;;;;;;5096150;28;19981;-74
2020/12/03 01:22:14;;;;;;;;;;;4.90;99.90;;;;;;5096455;28;19960;-73
2020/12/03 01:24:42;;;;;;;;;;;4.90;99.90;;;;;;5096047;28;19912;-73
2020/12/03 01:27:09;;;;;;;;;;;4.90;99.90;;;;;;5095610;28;20029;-73
2020/12/03 01:29:34;;;;;;;;;;;4.80;99.90;;;;;;5098017;28;19904;-75
2020/12/03 01:32:00;;;;;;;;;;;4.80;99.90;;;;;;5094161;28;19943;-74
2020/12/03 01:34:26;;;;;;;;;;;4.80;99.90;;;;;;5099151;28;20010;-73
2020/12/03 01:36:51;;;;;;;;;;;4.80;99.90;;;;;;5093508;28;20010;-73
2020/12/03 01:39:17;;;;;;;;;;;4.70;99.90;;;;;;5100116;28;19904;-73
2020/12/03 01:41:43;;;;;;;;;;;4.60;99.90;;;;;;5093506;28;20516;-74
2020/12/03 01:44:09;;;;;;;;;;;4.50;99.90;;;;;;5099470;28;20034;-73
2020/12/03 01:46:37;;;;;;;;;;;4.50;99.90;;;;;;5093209;28;19928;-73
2020/12/03 01:49:02;;;;;;;;;;;4.50;99.90;;;;;;5099736;28;20087;-75
2020/12/03 01:51:36;;;;;;;;;;;4.70;99.90;;;;;;5093275;28;20379;-73
2020/12/03 01:54:05;;;;;;;;;;;4.60;99.90;;;;;;5099674;28;19922;-73
2020/12/03 01:56:42;;;;;;;;;;;4.60;99.90;;;;;;5093124;28;19914;-74
2020/12/03 01:59:08;;;;;;;;;;;4.60;99.90;;;;;;5099612;28;19908;-73
2020/12/03 02:01:34;;;;;;;;;;;4.60;99.90;;;;;;5092977;28;19994;-73
2020/12/03 02:04:00;;;;;;;;;;;4.50;99.90;;;;;;5099358;28;20045;-74
2020/12/03 02:06:27;;;;;;;;;;;4.60;99.90;;;;;;5093057;28;19908;-74
2020/12/03 02:08:53;;;;;;;;;;;4.50;99.90;;;;;;5115099;27;20323;-74
2020/12/03 02:11:19;;;;;;;;;;;4.50;99.90;;;;;;5092416;28;19950;-74
2020/12/03 02:13:51;;;;;;;;;;;4.50;99.90;;;;;;5099529;28;20066;-73
2020/12/03 02:16:17;;;;;;;;;;;4.50;99.90;;;;;;5092087;28;19931;-74
2020/12/03 02:18:43;;;;;;;;;;;4.70;99.90;;;;;;5099823;28;19904;-75
2020/12/03 02:21:09;;;;;;;;;;;4.70;99.90;;;;;;5106235;28;19908;-74
2020/12/03 02:23:34;;;;;;;;;;;4.60;99.90;;;;;;5100980;28;19936;-74
2020/12/03 02:26:00;;;;;;;;;;;4.50;99.90;;;;;;5090338;28;20429;-74
2020/12/03 02:28:25;;;;;;;;;;;4.50;99.90;;;;;;5101193;28;19904;-74
2020/12/03 02:30:51;;;;;;;;;;;4.70;99.90;;;;;;5090050;28;19917;-74
2020/12/03 02:33:16;;;;;;;;;;;4.40;99.90;;;;;;5101244;28;19940;-74
2020/12/03 02:35:42;;;;;;;;;;;4.50;99.90;;;;;;5089635;28;19904;-74
2020/12/03 02:38:07;;;;;;;;;;;4.30;99.90;;;;;;5101137;28;19930;-74
2020/12/03 02:40:33;;;;;;;;;;;4.40;99.90;;;;;;5090051;28;19908;-74
2020/12/03 02:42:58;;;;;;;;;;;4.60;99.90;;;;;;5100942;28;20299;-74
2020/12/03 02:45:24;;;;;;;;;;;4.50;99.90;;;;;;5089553;28;19912;-75
2020/12/03 02:47:49;;;;;;;;;;;4.50;99.90;;;;;;5099536;28;19908;-73
2020/12/03 02:50:15;;;;;;;;;;;4.50;99.90;;;;;;5088160;28;19908;-75
2020/12/03 02:52:40;;;;;;;;;;;4.40;99.90;;;;;;5098290;28;20006;-75
2020/12/03 02:55:06;;;;;;;;;;;4.50;99.90;;;;;;5092232;28;19904;-74
2020/12/03 02:57:32;;;;;;;;;;;4.40;99.90;;;;;;5096976;28;20299;-74
2020/12/03 02:59:57;;;;;;;;;;;4.30;99.90;;;;;;5093100;28;19976;-74
2020/12/03 03:02:23;;;;;;;;;;;4.40;99.90;;;;;;5095435;28;19986;-73
2020/12/03 03:04:48;;;;;;;;;;;4.40;99.90;;;;;;5094404;28;19912;-74
2020/12/03 03:07:14;;;;;;;;;;;4.50;99.90;;;;;;5094147;28;19938;-74
2020/12/03 03:09:39;;;;;;;;;;;4.50;99.90;;;;;;5095670;28;19972;-74
2020/12/03 03:12:05;;;;;;;;;;;4.40;99.90;;;;;;5092974;28;19943;-75
2020/12/03 03:14:31;;;;;;;;;;;4.50;99.90;;;;;;5096754;28;19916;-74
2020/12/03 03:16:56;;;;;;;;;;;4.40;99.90;;;;;;5091559;28;20077;-75
2020/12/03 03:19:22;;;;;;;;;;;4.40;99.90;;;;;;5097943;28;19904;-73
2020/12/03 03:21:48;;;;;;;;;;;4.40;99.90;;;;;;5091636;28;19907;-73
2020/12/03 03:24:14;;;;;;;;;;;4.40;99.90;;;;;;5108183;28;20006;-73
2020/12/03 03:26:40;;;;;;;;;;;4.30;99.90;;;;;;5088082;28;20293;-74
2020/12/03 03:29:06;;;;;;;;;;;4.50;99.90;;;;;;5097704;28;19982;-75
2020/12/03 03:31:31;;;;;;;;;;;4.40;99.90;;;;;;5091347;28;20354;-75
2020/12/03 03:33:57;;;;;;;;;;;4.40;99.90;;;;;;5097754;28;19977;-74
2020/12/03 03:36:23;;;;;;;;;;;4.30;99.90;;;;;;5091026;28;20213;-74
2020/12/03 03:38:48;;;;;;;;;;;4.20;99.90;;;;;;5097881;28;19904;-74
2020/12/03 03:41:14;;;;;;;;;;;4.10;99.90;;;;;;5089884;28;19983;-73
2020/12/03 03:43:39;;;;;;;;;;;4.10;99.90;;;;;;5098648;28;19924;-75
2020/12/03 03:46:05;;;;;;;;;;;4.10;99.90;;;;;;5088890;28;19911;-73
2020/12/03 03:48:30;;;;;;;;;;;4.10;99.90;;;;;;5099110;28;20272;-74
2020/12/03 03:50:56;;;;;;;;;;;4.10;99.90;;;;;;5088578;28;19995;-74
2020/12/03 03:53:21;;;;;;;;;;;4.20;99.90;;;;;;5096922;28;19904;-74
2020/12/03 03:55:47;;;;;;;;;;;4.20;99.90;;;;;;5109067;28;19903;-73
2020/12/03 03:58:12;;;;;;;;;;;4.00;99.90;;;;;;5100418;28;19907;-74
2020/12/03 04:00:44;;;;;;;;;;;4.00;99.90;;;;;;5088439;28;19904;-74
2020/12/03 04:03:13;;;;;;;;;;;3.90;99.90;;;;;;5099704;28;19988;-73
2020/12/03 04:05:39;;;;;;;;;;;3.80;99.90;;;;;;5088531;28;20371;-75
2020/12/03 04:08:05;;;;;;;;;;;3.90;99.90;;;;;;5115139;28;19908;-74
2020/12/03 04:10:30;;;;;;;;;;;4.00;99.90;;;;;;5088643;28;19908;-74
2020/12/03 04:12:56;;;;;;;;;;;4.00;99.90;;;;;;5099032;28;19931;-74
2020/12/03 04:15:22;;;;;;;;;;;4.00;99.90;;;;;;5086797;28;20272;-73
2020/12/03 04:17:47;;;;;;;;;;;4.00;99.90;;;;;;5097556;28;19919;-73
2020/12/03 04:20:14;;;;;;;;;;;4.10;99.90;;;;;;5090369;28;19915;-74
2020/12/03 04:22:39;;;;;;;;;;;4.00;99.90;;;;;;5083991;28;19915;-73
2020/12/03 04:25:05;;;;;;;;;;;4.10;99.90;;;;;;5091295;28;19912;-75
2020/12/03 04:27:30;;;;;;;;;;;4.10;99.90;;;;;;5095161;28;19912;-73
2020/12/03 04:29:56;;;;;;;;;;;4.10;99.90;;;;;;5092445;28;19904;-73
2020/12/03 04:32:21;;;;;;;;;;;4.20;99.90;;;;;;5093954;28;19915;-72
2020/12/03 04:34:47;;;;;;;;;;;3.90;99.90;;;;;;5093691;28;19973;-72
2020/12/03 04:37:12;;;;;;;;;;;4.00;99.90;;;;;;5092731;28;19964;-74
2020/12/03 04:39:38;;;;;;;;;;;3.90;99.90;;;;;;5095082;28;20334;-73
2020/12/03 04:42:05;;;;;;;;;;;4.20;99.90;;;;;;5091172;28;20374;-74
2020/12/03 04:44:37;;;;;;;;;;;4.20;99.90;;;;;;5095834;28;19912;-73
2020/12/03 04:47:02;;;;;;;;;;;4.10;99.90;;;;;;5091037;28;19916;-72
2020/12/03 04:49:33;;;;;;;;;;;4.20;99.90;;;;;;5086454;28;20382;-73
2020/12/03 04:52:22;;;;;;;;;;;4.10;99.90;;;;;;5077433;28;19907;-72
2020/12/03 04:54:53;;;;;;;;;;;4.20;99.90;;;;;;5105074;28;19911;-73
2020/12/03 04:57:24;;;;;;;;;;;4.20;99.90;;;;;;5101184;28;19912;-72
2020/12/03 04:59:56;;;;;;;;;;;4.00;99.90;;;;;;5109344;28;19904;-74
2020/12/03 05:02:40;;;;;;;;;;;3.90;99.90;;;;;;5091450;28;19912;-73
2020/12/03 05:05:12;;;;;;;;;;;3.80;99.90;;;;;;5091902;28;19920;-75
2020/12/03 05:07:39;;;;;;;;;;;3.90;99.90;;;;;;5105263;28;19930;-72
2020/12/03 05:10:19;;;;;;;;;;;3.80;99.90;;;;;;5094792;28;20376;-72
2020/12/03 05:12:44;;;;;;;;;;;3.90;99.90;;;;;;5100314;28;19907;-72
2020/12/03 05:15:20;;;;;;;;;;;4.00;99.90;;;;;;5094899;28;19915;-71
2020/12/03 05:18:04;;;;;;;;;;;4.00;99.90;;;;;;5107853;28;19908;-72
2020/12/03 05:20:30;;;;;;;;;;;4.00;99.90;;;;;;5109332;28;20156;-72
2020/12/03 05:23:02;;;;;;;;;;;4.10;99.90;;;;;;5089197;28;19999;-72
2020/12/03 05:25:27;;;;;;;;;;;4.20;99.90;;;;;;5091274;28;19942;-73
2020/12/03 05:27:54;;;;;;;;;;;4.10;99.90;;;;;;5101173;28;20515;-72
2020/12/03 05:30:21;;;;;;;;;;;4.10;99.90;;;;;;5092209;28;19904;-71
2020/12/03 05:32:47;;;;;;;;;;;3.80;99.90;;;;;;5100302;28;19946;-72
2020/12/03 05:35:12;;;;;;;;;;;4.00;99.90;;;;;;5089564;28;19919;-72
2020/12/03 05:37:39;;;;;;;;;;;4.10;99.90;;;;;;5098762;28;19991;-71
2020/12/03 05:40:04;;;;;;;;;;;4.10;99.90;;;;;;5099315;27;19915;-72
2020/12/03 05:42:34;;;;;;;;;;;4.20;99.90;;;;;;5111543;27;20367;-74
2020/12/03 05:45:01;;;;;;;;;;;4.10;99.90;;;;;;5107751;28;20332;-74
2020/12/03 05:47:31;;;;;;;;;;;3.90;99.90;;;;;;5106354;28;19977;-73
2020/12/03 05:49:56;;;;;;;;;;;3.80;99.90;;;;;;5108932;28;19950;-72
2020/12/03 05:52:23;;;;;;;;;;;3.80;99.90;;;;;;5106654;28;19951;-71
2020/12/03 05:55:03;;;;;;;;;;;3.90;99.90;;;;;;5108921;28;19903;-71
2020/12/03 05:57:30;;;;;;;;;;;4.00;99.90;;;;;;5104973;28;19919;-74
2020/12/03 06:00:07;;;;;;;;;;;4.10;99.90;;;;;;5108536;28;19964;-73
2020/12/03 06:02:53;;;;;;;;;;;4.10;99.90;;;;;;5106064;28;19919;-70
2020/12/03 06:05:30;;;;;;;;;;;4.10;99.90;;;;;;5117019;27;19916;-72
2020/12/03 06:08:01;;;;;;;;;;;4.10;99.90;;;;;;5107708;27;20007;-71
2020/12/03 06:10:36;;;;;;;;;;;4.00;99.90;;;;;;5109318;28;19922;-71
2020/12/03 06:13:10;;;;;;;;;;;3.80;99.90;;;;;;5105296;28;19908;-72
2020/12/03 06:15:35;;;;;;;;;;;4.10;99.90;;;;;;5108894;28;19915;-75
2020/12/03 06:18:01;;;;;;;;;;;4.00;99.90;;;;;;5104626;28;19907;-74
2020/12/03 06:20:37;;;;;;;;;;;4.00;99.90;;;;;;5107906;28;19908;-72
2020/12/03 06:23:09;;;;;;;;;;;4.00;99.90;;;;;;5105139;28;19990;-73
2020/12/03 06:25:34;;;;;;;;;;;4.10;99.90;;;;;;5119411;27;19972;-73
2020/12/03 06:28:20;;;;;;;;;;;4.00;99.90;;;;;;5105898;27;19916;-71
2020/12/03 06:30:48;;;;;;;;;;;3.90;99.90;;;;;;5088720;28;19908;-73
2020/12/03 06:33:17;;;;;;;;;;;4.10;99.90;;;;;;5100754;28;20272;-75
2020/12/03 06:35:49;;;;;;;;;;;4.20;99.90;;;;;;5089535;28;19915;-75
2020/12/03 06:38:33;;;;;;;;;;;4.10;99.90;;;;;;5090199;27;19990;-69
2020/12/03 06:41:15;;;;;;;;;;;5.30;99.90;;;;;;5109438;27;19930;-70
2020/12/03 06:43:46;;;;;;;;;;;4.80;99.90;;;;;;5094051;28;19966;-70
2020/12/03 06:46:21;;;;;;;;;;;4.60;99.90;;;;;;5089047;28;20368;-70
2020/12/03 06:48:54;;;;;;;;;;;4.50;99.90;;;;;;5087704;28;20280;-70
2020/12/03 06:51:25;;;;;;;;;;;4.40;99.90;;;;;;5090413;28;19908;-71
2020/12/03 06:54:00;;;;;;;;;;;4.30;99.90;;;;;;5098708;28;20432;-70
2020/12/03 06:56:28;;;;;;;;;;;4.50;99.90;;;;;;5100564;28;20505;-70
2020/12/03 06:59:12;;;;;;;;;;;4.50;99.90;;;;;;5105001;28;19952;-70
2020/12/03 07:01:50;;;;;;;;;;;4.50;99.90;;;;;;5106461;28;19978;-70
2020/12/03 07:04:33;;;;;;;;;;;4.40;99.90;;;;;;5107649;28;20014;-70
2020/12/03 07:07:18;;;;;;;;;;;4.40;99.90;;;;;;5104254;28;19919;-70
2020/12/03 07:10:04;;;;;;;;;;;4.40;99.90;;;;;;5108176;28;19962;-70
2020/12/03 07:12:48;;;;;;;;;;;4.40;99.90;;;;;;5083772;28;19916;-69
2020/12/03 07:15:28;;;;;;;;;;;4.50;99.90;;;;;;5104721;28;19914;-69
2020/12/03 07:17:53;;;;;;;;;;;4.50;99.90;;;;;;5102163;28;19907;-70
2020/12/03 07:20:19;;;;;;;;;;;4.30;99.90;;;;;;5106240;28;20414;-70
2020/12/03 07:22:49;;;;;;;;;;;4.50;99.90;;;;;;5102461;28;20003;-70
2020/12/03 07:25:16;;;;;;;;;;;4.50;99.90;;;;;;5107747;28;20210;-70
2020/12/03 07:28:02;;;;;;;;;;;4.50;99.90;;;;;;5073509;28;20475;-70
2020/12/03 07:30:33;;;;;;;;;;;4.30;99.90;;;;;;5089051;28;19911;-71
2020/12/03 07:32:59;;;;;;;;;;;4.20;99.90;;;;;;5099542;28;19953;-71
2020/12/03 07:35:25;;;;;;;;;;;4.30;99.90;;;;;;5090895;28;19987;-71
2020/12/03 07:38:11;;;;;;;;;;;4.30;99.90;;;;;;5113396;27;20003;-70
2020/12/03 07:40:37;;;;;;;;;;;4.20;99.90;;;;;;5104078;28;19927;-70
2020/12/03 07:43:04;;;;;;;;;;;4.20;99.90;;;;;;5101930;28;19938;-70
2020/12/03 07:45:43;;;;;;;;;;;4.20;99.90;;;;;;5108978;28;20397;-70
2020/12/03 07:48:23;;;;;;;;;;;4.30;99.90;;;;;;5101670;28;19972;-70
2020/12/03 07:51:01;;;;;;;;;;;4.20;99.90;;;;;;5088321;28;19974;-70
2020/12/03 07:53:27;;;;;;;;;;;4.30;99.90;;;;;;5096553;28;19908;-70
2020/12/03 07:55:53;;;;;;;;;;;4.40;99.90;;;;;;5108950;28;20309;-70
2020/12/03 07:58:40;;;;;;;;;;;4.50;99.90;;;;;;5100285;28;19903;-70
2020/12/03 08:01:06;;;;;;;;;;;4.40;99.90;;;;;;5090130;28;19947;-69
2020/12/03 08:03:32;;;;;;;;;;;4.60;99.90;;;;;;5099458;28;19984;-70
2020/12/03 08:06:08;;;;;;;;;;;4.70;99.90;;;;;;5088513;28;19949;-71
2020/12/03 08:08:36;;;;;;;;;;;4.80;99.90;;;;;;5080667;28;19940;-71
2020/12/03 08:11:03;;;;;;;;;;;4.80;99.90;;;;;;5088493;28;20282;-71
2020/12/03 08:13:29;;;;;;;;;;;5.00;99.90;;;;;;5099504;28;20297;-70
2020/12/03 08:15:59;;;;;;;;;;;5.00;99.90;;;;;;5090145;28;19908;-70
2020/12/03 08:18:38;;;;;;;;;;;5.10;99.90;;;;;;5096060;28;19908;-71
2020/12/03 08:21:04;;;;;;;;;;;5.00;99.90;;;;;;5089005;28;19977;-70
2020/12/03 08:23:30;;;;;;;;;;;5.10;99.90;;;;;;5099546;28;19920;-70
2020/12/03 08:25:56;;;;;;;;;;;5.10;99.90;;;;;;5104050;28;19965;-71
2020/12/03 08:28:24;;;;;;;;;;;5.10;99.90;;;;;;5101240;28;20005;-70
2020/12/03 08:30:53;;;;;;;;;;;5.20;99.90;;;;;;5088525;28;19931;-70
2020/12/03 08:33:24;;;;;;;;;;;5.60;99.90;;;;;;5095687;28;19910;-70
2020/12/03 08:35:51;;;;;;;;;;;5.50;99.90;;;;;;5112912;28;19915;-71
2020/12/03 08:38:19;;;;;;;;;;;5.40;99.90;;;;;;5094670;28;19908;-70
2020/12/03 08:40:47;;;;;;;;;;;5.50;99.90;;;;;;5116163;28;20011;-71
2020/12/03 08:43:15;;;;;;;;;;;5.60;99.90;;;;;;5104974;27;20010;-73
2020/12/03 08:45:49;;;;;;;;;;;5.60;99.90;;;;;;5093209;28;19916;-71
2020/12/03 08:48:19;;;;;;;;;;;5.60;99.90;;;;;;5103165;28;19911;-71
2020/12/03 08:50:46;;;;;;;;;;;5.60;99.90;;;;;;5101231;28;19907;-71
2020/12/03 08:53:13;;;;;;;;;;;5.80;99.90;;;;;;5107856;28;19910;-71
2020/12/03 08:55:39;;;;;;;;;;;5.90;99.90;;;;;;5111597;28;20064;-71
2020/12/03 08:58:06;;;;;;;;;;;6.00;99.90;;;;;;5102795;28;20028;-72
2020/12/03 09:00:37;;;;;;;;;;;6.10;99.90;;;;;;5105000;28;20275;-71
2020/12/03 09:03:04;;;;;;;;;;;6.10;99.90;;;;;;5104302;28;19907;-71
2020/12/03 09:05:30;;;;;;;;;;;6.20;99.90;;;;;;5111920;28;19915;-71
2020/12/03 09:07:57;;;;;;;;;;;6.20;99.90;;;;;;5108029;28;19907;-71
2020/12/03 09:10:24;;;;;;;;;;;6.40;99.90;;;;;;5096162;28;19938;-70
2020/12/03 09:12:51;;;;;;;;;;;6.30;99.90;;;;;;5102041;28;19907;-71
2020/12/03 09:15:17;;;;;;;;;;;6.50;99.90;;;;;;5091425;28;19912;-71
2020/12/03 09:17:49;;;;;;;;;;;6.50;99.90;;;;;;5094315;28;20313;-72
2020/12/03 09:20:15;;;;;;;;;;;6.60;99.90;;;;;;5100385;28;19911;-72
2020/12/03 09:22:41;;;;;;;;;;;6.60;99.90;;;;;;5091554;28;19972;-72
2020/12/03 09:25:07;;;;;;;;;;;6.80;99.90;;;;;;5108572;28;19927;-72
2020/12/03 09:27:45;;;;;;;;;;;7.20;99.90;;;;;;5093600;28;20343;-71
2020/12/03 09:30:25;;;;;;;;;;;7.60;99.90;;;;;;5093404;28;20009;-71
2020/12/03 09:32:54;;;;;;;;;;;7.40;99.90;;;;;;5101168;28;20390;-71
2020/12/03 09:35:24;;;;;;;;;;;7.30;99.90;;;;;;5091358;28;19958;-72
2020/12/03 09:37:54;;;;;;;;;;;7.50;99.90;;;;;;5099293;28;19904;-72
2020/12/03 09:40:21;;;;;;;;;;;7.80;99.90;;;;;;5092742;28;19930;-72
2020/12/03 09:42:53;;;;;;;;;;;7.90;99.90;;;;;;5085790;28;20405;-72
2020/12/03 09:45:21;;;;;;;;;;;8.10;99.90;;;;;;5090864;28;19957;-72
2020/12/03 09:47:48;;;;;;;;;;;8.50;99.90;;;;;;5098790;28;19908;-72
2020/12/03 09:50:15;;;;;;;;;;;8.70;99.90;;;;;;5104873;28;20111;-71
2020/12/03 09:52:42;;;;;;;;;;;8.70;99.90;;;;;;5084245;28;20357;-71
2020/12/03 09:55:17;;;;;;;;;;;9.10;99.90;;;;;;5075594;28;20067;-71
2020/12/03 09:57:57;;;;;;;;;;;9.00;99.90;;;;;;5098326;28;20340;-71
2020/12/03 10:00:33;;;;;;;;;;;9.30;99.90;;;;;;5101905;28;19916;-71
2020/12/03 10:02:58;;;;;;;;;;;9.30;99.90;;;;;;5106580;28;19916;-71
2020/12/03 10:05:42;;;;;;;;;;;9.10;99.90;;;;;;5091751;28;19912;-72
2020/12/03 10:08:31;;;;;;;;;;;8.90;99.90;;;;;;5103397;28;19915;-72
2020/12/03 10:11:15;;;;;;;;;;;8.90;99.90;;;;;;5090008;28;20372;-72
2020/12/03 10:13:59;;;;;;;;;;;8.90;99.90;;;;;;5076994;28;19920;-72
2020/12/03 10:16:32;;;;;;;;;;;8.90;99.90;;;;;;5091677;28;19939;-72
2020/12/03 10:19:03;;;;;;;;;;;8.80;99.90;;;;;;5090547;28;20054;-72
2020/12/03 10:21:30;;;;;;;;;;;8.90;99.90;;;;;;5094804;28;20383;-72
2020/12/03 10:23:56;;;;;;;;;;;8.80;99.90;;;;;;5084435;28;20002;-72
2020/12/03 10:26:36;;;;;;;;;;;8.90;99.90;;;;;;5106653;28;20526;-72
2020/12/03 10:29:29;;;;;;;;;;;9.00;99.90;;;;;;5093552;28;19908;-72
2020/12/03 10:31:56;;;;;;;;;;;8.80;99.90;;;;;;5083759;27;19972;-72
2020/12/03 10:34:22;;;;;;;;;;;8.80;99.90;;;;;;5081210;28;19912;-72
2020/12/03 10:36:54;;;;;;;;;;;8.80;99.90;;;;;;5088068;28;19914;-73
2020/12/03 10:39:23;;;;;;;;;;;8.90;99.90;;;;;;5098921;28;19908;-73
2020/12/03 10:41:52;;;;;;;;;;;8.80;99.90;;;;;;5074202;28;19934;-73
2020/12/03 10:44:19;;;;;;;;;;;8.90;99.90;;;;;;5100722;28;19916;-72
2020/12/03 10:46:52;;;;;;;;;;;9.20;99.90;;;;;;5091664;28;19930;-73
2020/12/03 10:49:22;;;;;;;;;;;9.50;99.90;;;;;;5098079;28;19911;-72
2020/12/03 10:51:48;;;;;;;;;;;9.40;99.90;;;;;;5092669;28;19918;-72
2020/12/03 10:54:20;;;;;;;;;;;9.20;99.90;;;;;;5079232;28;19947;-72
2020/12/03 10:56:49;;;;;;;;;;;9.30;99.90;;;;;;5099367;28;19915;-72
2020/12/03 10:59:31;;;;;;;;;;;9.10;99.90;;;;;;5089129;28;20364;-72
2020/12/03 11:02:28;;;;;;;;;;;9.20;99.90;;;;;;5095817;28;20367;-72
2020/12/03 11:04:54;;;;;;;;;;;9.30;99.90;;;;;;5083849;28;20362;-72
2020/12/03 11:07:22;;;;;;;;;;;9.80;99.90;;;;;;5100672;28;20290;-72
2020/12/03 11:09:52;;;;;;;;;;;9.40;99.90;;;;;;5103091;28;20329;-72
2020/12/03 11:12:18;;;;;;;;;;;9.50;99.90;;;;;;5118268;27;20011;-72
2020/12/03 11:14:45;;;;;;;;;;;9.60;99.90;;;;;;5107610;28;20347;-73
2020/12/03 11:17:22;;;;;;;;;;;9.70;99.90;;;;;;5103217;28;19915;-73
2020/12/03 11:19:53;;;;;;;;;;;9.60;99.90;;;;;;5094629;28;20001;-72
2020/12/03 11:22:26;;;;;;;;;;;10.50;99.90;;;;;;5088190;28;20039;-73
2020/12/03 11:24:59;;;;;;;;;;;10.40;99.90;;;;;;5109235;28;19918;-73
2020/12/03 11:27:28;;;;;;;;;;;10.60;99.90;;;;;;5102545;28;19918;-74
2020/12/03 11:29:56;;;;;;;;;;;11.20;99.90;;;;;;5087484;28;19904;-73
2020/12/03 11:32:22;;;;;;;;;;;10.90;99.90;;;;;;5094703;28;20329;-74
2020/12/03 11:34:49;;;;;;;;;;;10.50;99.90;;;;;;5113981;27;19907;-74
2020/12/03 11:37:20;;;;;;;;;;;10.70;99.90;;;;;;5104606;28;19991;-73
2020/12/03 11:39:48;;;;;;;;;;;10.70;99.90;;;;;;5101758;28;19986;-74
2020/12/03 11:42:26;;;;;;;;;;;10.60;99.90;;;;;;5101179;28;19969;-72
2020/12/03 11:50:12;;;;;;;;;;;11.00;99.90;;;;;;5092530;28;19957;-72
2020/12/03 11:52:38;;;;;;;;;;;11.30;99.90;;;;;;5103480;28;19912;-73
2020/12/03 11:55:25;;;;;;;;;;;11.30;99.90;;;;;;5090027;28;19943;-73
2020/12/03 11:57:51;;;;;;;;;;;11.60;99.90;;;;;;5104408;28;20015;-73
2020/12/03 12:00:21;;;;;;;;;;;12.10;99.90;;;;;;5105616;28;19904;-72
2020/12/03 12:02:53;;;;;;;;;;;11.70;99.90;;;;;;5105405;28;19914;-73
2020/12/03 12:10:53;;;;;;;;;;;11.40;99.90;;;;;;5088782;28;19926;-72
2020/12/03 12:13:19;;;;;;;;;;;11.50;99.90;;;;;;5099749;28;20021;-73
2020/12/03 12:15:44;;;;;;;;;;;11.60;99.90;;;;;;5088641;28;19904;-72
2020/12/03 12:18:11;;;;;;;;;;;11.90;99.90;;;;;;5091993;28;19908;-72
2020/12/03 12:20:37;;;;;;;;;;;12.20;99.90;;;;;;5086931;28;19927;-72
2020/12/03 12:23:03;;;;;;;;;;;12.10;99.90;;;;;;5103371;28;19950;-72
2020/12/03 12:25:30;;;;;;;;;;;12.20;99.90;;;;;;5107497;28;19966;-72
2020/12/03 12:27:55;;;;;;;;;;;12.10;99.90;;;;;;5112505;28;19918;-71
2020/12/03 12:30:21;;;;;;;;;;;12.30;99.90;;;;;;5106781;28;20069;-71
2020/12/03 12:32:47;;;;;;;;;;;12.20;99.90;;;;;;5103268;28;20113;-71
2020/12/03 12:35:13;;;;;;;;;;;12.10;99.90;;;;;;5105115;28;19930;-71
2020/12/03 12:37:39;;;;;;;;;;;12.10;99.90;;;;;;5104122;28;19915;-71
2020/12/03 12:40:05;;;;;;;;;;;12.00;99.90;;;;;;5114400;28;19912;-72
2020/12/03 12:42:31;;;;;;;;;;;12.00;99.90;;;;;;5102046;28;19920;-71
2020/12/03 12:44:57;;;;;;;;;;;12.10;99.90;;;;;;5106141;28;19923;-71
2020/12/03 12:47:23;;;;;;;;;;;12.10;99.90;;;;;;5101807;28;19908;-73
2020/12/03 12:49:49;;;;;;;;;;;12.10;99.90;;;;;;5076335;28;19965;-72
2020/12/03 12:52:14;;;;;;;;;;;11.90;99.90;;;;;;5090698;28;19915;-72
2020/12/03 12:54:40;;;;;;;;;;;11.70;99.90;;;;;;5077227;28;20368;-72
2020/12/03 12:57:05;;;;;;;;;;;11.70;99.90;;;;;;5090453;28;20326;-72
2020/12/03 12:59:31;;;;;;;;;;;11.80;99.90;;;;;;5096900;28;20437;-72
2020/12/03 13:01:56;;;;;;;;;;;11.90;99.90;;;;;;5089578;28;19959;-73
2020/12/03 13:04:22;;;;;;;;;;;12.50;99.90;;;;;;5100182;28;19974;-73
2020/12/03 13:06:48;;;;;;;;;;;12.70;99.90;;;;;;5090366;28;19923;-73
2020/12/03 13:09:14;;;;;;;;;;;13.00;99.90;;;;;;5097722;28;19923;-73
2020/12/03 13:11:41;;;;;;;;;;;13.00;99.90;;;;;;5104472;28;19968;-74
2020/12/03 13:14:08;;;;;;;;;;;12.90;99.90;;;;;;5106915;28;19904;-74
2020/12/03 13:16:34;;;;;;;;;;;12.90;99.90;;;;;;5106108;28;19930;-74
2020/12/03 13:19:01;;;;;;;;;;;12.70;99.90;;;;;;5091571;28;19952;-74
2020/12/03 13:21:27;;;;;;;;;;;12.50;99.90;;;;;;5092693;28;19927;-64
2020/12/03 13:23:52;;;;;;;;;;;13.80;99.90;;;;;;5102952;28;19904;-64
2020/12/03 13:26:20;;;;;;;;;;;14.20;99.90;;;;;;5091361;28;20054;-73
2020/12/03 13:28:45;;;;;;;;;;;13.60;99.90;;;;;;5090753;28;19911;-74
2020/12/03 13:31:11;;;;;;;;;;;13.20;99.90;;;;;;5098346;28;19915;-72
2020/12/03 13:33:36;;;;;;;;;;;13.10;99.90;;;;;;5111586;27;19908;-75
2020/12/03 13:36:02;;;;;;;;;;;12.50;99.90;;;;;;5095299;28;19919;-75
2020/12/03 13:38:27;;;;;;;;;;;12.60;99.90;;;;;;5106055;28;19915;-73
2020/12/03 13:40:53;;;;;;;;;;;12.40;99.90;;;;;;5110070;28;19960;-74
2020/12/03 13:43:18;;;;;;;;;;;12.10;99.90;;;;;;5107090;28;19972;-75
2020/12/03 13:45:46;;;;;;;;;;;12.10;99.90;;;;;;5109168;28;19972;-72
2020/12/03 13:48:11;;;;;;;;;;;11.90;99.90;;;;;;5099533;28;20594;-72
2020/12/03 13:50:37;;;;;;;;;;;11.80;99.90;;;;;;5092654;28;19960;-73
2020/12/03 13:53:02;;;;;;;;;;;11.80;99.90;;;;;;5104420;28;19918;-74
2020/12/03 13:55:28;;;;;;;;;;;11.90;99.90;;;;;;5091999;28;19904;-73
2020/12/03 13:57:54;;;;;;;;;;;11.80;99.90;;;;;;5099294;28;19998;-73
2020/12/03 14:00:19;;;;;;;;;;;11.80;99.90;;;;;;5093061;28;19956;-74
2020/12/03 14:02:45;;;;;;;;;;;11.70;99.90;;;;;;5097774;28;19908;-72
2020/12/03 14:05:10;;;;;;;;;;;11.80;99.90;;;;;;5111705;27;19919;-74
2020/12/03 14:07:36;;;;;;;;;;;11.60;99.90;;;;;;5103669;28;19927;-75
2020/12/03 14:10:02;;;;;;;;;;;11.50;99.90;;;;;;5109378;28;19904;-74
2020/12/03 14:12:27;;;;;;;;;;;11.70;99.90;;;;;;5104327;28;19908;-74
2020/12/03 14:14:55;;;;;;;;;;;11.70;99.90;;;;;;5096269;28;19908;-73
2020/12/03 14:17:20;;;;;;;;;;;11.70;99.90;;;;;;5094174;28;20386;-73
2020/12/03 14:19:46;;;;;;;;;;;11.70;99.90;;;;;;5081441;28;20004;-74
2020/12/03 14:22:11;;;;;;;;;;;11.60;99.90;;;;;;5093106;28;19970;-73
2020/12/03 14:24:37;;;;;;;;;;;11.50;99.90;;;;;;5098728;28;19919;-73
2020/12/03 14:27:03;;;;;;;;;;;11.40;99.90;;;;;;5092480;28;19908;-74
2020/12/03 14:29:29;;;;;;;;;;;11.40;99.90;;;;;;5098670;28;19908;-73
2020/12/03 14:31:54;;;;;;;;;;;11.60;99.90;;;;;;5099364;28;20121;-75
2020/12/03 14:34:20;;;;;;;;;;;11.60;99.90;;;;;;5098834;28;19927;-74
2020/12/03 14:36:46;;;;;;;;;;;11.60;99.90;;;;;;5092390;28;19972;-74
2020/12/03 14:39:13;;;;;;;;;;;11.60;99.90;;;;;;5114222;27;19989;-74
2020/12/03 14:41:38;;;;;;;;;;;11.40;99.90;;;;;;5097519;28;19908;-74
2020/12/03 14:44:04;;;;;;;;;;;11.50;99.90;;;;;;5109197;28;19915;-73
2020/12/03 14:46:29;;;;;;;;;;;11.40;99.90;;;;;;5107576;28;20014;-73